createdAt,value
2019-03-04T00:00:59.829Z,2.67
2019-03-04T00:05:55.746Z,2.70
2019-03-04T00:10:51.691Z,2.90
2019-03-04T00:15:47.605Z,3.27
2019-03-04T00:20:43.523Z,2.20
2019-03-04T00:25:39.608Z,2.30
2019-03-04T00:30:35.538Z,2.20
2019-03-04T00:35:31.484Z,2.57
2019-03-04T00:40:27.500Z,2.57
2019-03-04T00:45:23.431Z,2.00
2019-03-04T00:50:19.708Z,2.40
2019-03-04T00:55:15.926Z,2.40
2019-03-04T01:00:17.892Z,2.47
2019-03-04T01:05:14.023Z,2.70
2019-03-04T01:10:12.049Z,2.80
2019-03-04T01:15:13.560Z,2.13
2019-03-04T01:20:13.462Z,2.40
2019-03-04T01:25:15.650Z,2.53
2019-03-04T01:30:22.746Z,2.47
2019-03-04T01:35:18.996Z,2.53
2019-03-04T01:40:20.596Z,2.90
2019-03-04T01:45:17.419Z,2.40
2019-03-04T01:50:14.933Z,2.30
2019-03-04T01:55:12.253Z,2.00
2019-03-04T02:00:11.071Z,3.03
2019-03-04T02:05:07.424Z,2.87
2019-03-04T02:10:06.956Z,2.77
2019-03-04T02:15:05.678Z,2.30
2019-03-04T02:20:04.226Z,2.23
2019-03-04T02:25:00.337Z,2.20
2019-03-04T02:29:56.253Z,2.20
2019-03-04T02:34:52.271Z,2.37
2019-03-04T02:39:48.268Z,3.13
2019-03-04T02:44:44.187Z,2.13
2019-03-04T02:49:40.105Z,2.33
2019-03-04T02:54:36.028Z,2.23
2019-03-04T02:59:31.985Z,2.50
2019-03-04T03:04:27.913Z,2.57
2019-03-04T03:09:23.831Z,1.67
2019-03-04T03:14:19.744Z,2.00
2019-03-04T03:19:15.712Z,2.20
2019-03-04T03:24:11.796Z,2.90
2019-03-04T03:29:07.735Z,1.67
2019-03-04T03:34:03.675Z,2.00
2019-03-04T03:39:00.303Z,2.10
2019-03-04T03:43:56.193Z,1.97
2019-03-04T03:48:52.134Z,1.70
2019-03-04T03:53:48.064Z,1.80
2019-03-04T03:58:44.090Z,1.87
2019-03-04T04:03:40.040Z,1.97
2019-03-04T04:08:37.158Z,2.07
2019-03-04T04:13:33.083Z,2.33
2019-03-04T04:18:29.020Z,2.00
2019-03-04T04:23:24.945Z,1.30
2019-03-04T04:28:20.879Z,1.50
2019-03-04T04:33:16.819Z,1.33
2019-03-04T04:38:19.418Z,1.70
2019-03-04T04:43:17.234Z,1.10
2019-03-04T04:48:13.204Z,1.90
2019-03-04T04:53:09.120Z,1.47
2019-03-04T04:58:05.144Z,1.50
2019-03-04T05:03:01.219Z,1.23
2019-03-04T05:07:57.135Z,1.47
2019-03-04T05:12:53.054Z,0.83
2019-03-04T05:17:49.031Z,1.13
2019-03-04T05:22:44.956Z,1.00
2019-03-04T05:27:40.993Z,1.30
2019-03-04T05:32:36.914Z,1.03
2019-03-04T05:37:32.862Z,1.23
2019-03-04T05:42:28.783Z,0.90
2019-03-04T05:47:24.675Z,1.03
2019-03-04T05:52:20.588Z,1.37
2019-03-04T05:57:16.620Z,0.73
2019-03-04T06:02:12.547Z,1.30
2019-03-04T06:07:10.377Z,1.00
2019-03-04T06:12:06.305Z,1.00
2019-03-04T06:17:02.227Z,1.00
2019-03-04T06:21:58.269Z,1.10
2019-03-04T06:26:54.368Z,1.17
2019-03-04T06:31:50.285Z,0.80
2019-03-04T06:36:46.333Z,1.00
2019-03-04T06:41:42.761Z,1.40
2019-03-04T06:46:38.799Z,1.50
2019-03-04T06:51:36.941Z,1.20
2019-03-04T06:56:45.815Z,1.07
2019-03-04T07:02:13.676Z,0.83
2019-03-04T07:07:09.611Z,1.00
2019-03-04T07:12:05.551Z,1.00
2019-03-04T07:17:01.474Z,1.43
2019-03-04T07:21:59.902Z,1.27
2019-03-04T07:26:55.921Z,0.87
2019-03-04T07:31:51.842Z,0.73
2019-03-04T07:36:47.782Z,0.67
2019-03-04T07:41:43.776Z,0.50
2019-03-04T07:46:39.764Z,0.70
2019-03-04T07:51:35.698Z,0.83
2019-03-04T07:56:31.718Z,0.50
2019-03-04T08:01:27.655Z,0.40
2019-03-04T08:06:23.568Z,0.50
2019-03-04T08:11:56.833Z,0.50
2019-03-04T08:16:52.774Z,0.37
2019-03-04T08:21:48.722Z,0.80
2019-03-04T08:26:44.641Z,0.60
2019-03-04T08:31:40.661Z,0.77
2019-03-04T08:36:36.603Z,0.83
2019-03-04T08:41:32.522Z,0.50
2019-03-04T08:46:28.444Z,0.70
2019-03-04T08:51:24.358Z,0.60
2019-03-04T08:56:20.276Z,0.67
2019-03-04T09:01:16.300Z,0.87
2019-03-04T09:06:12.386Z,0.60
2019-03-04T09:11:08.909Z,0.87
2019-03-04T09:16:04.853Z,1.83
2019-03-04T09:21:00.777Z,1.10
2019-03-04T09:26:03.207Z,1.20
2019-03-04T09:30:59.267Z,1.03
2019-03-04T09:35:55.328Z,0.70
2019-03-04T09:40:51.348Z,1.57
2019-03-04T09:45:47.370Z,1.37
2019-03-04T09:50:43.549Z,0.77
2019-03-04T09:55:40.320Z,1.00
2019-03-04T10:00:42.857Z,1.00
2019-03-04T10:06:07.047Z,0.60
2019-03-04T10:11:27.111Z,0.80
2019-03-04T10:16:41.927Z,0.63
2019-03-04T10:21:50.916Z,1.00
2019-03-04T10:27:07.343Z,0.80
2019-03-04T10:32:07.071Z,1.00
2019-03-04T10:37:42.086Z,1.50
2019-03-04T10:42:53.600Z,0.93
2019-03-04T10:47:49.512Z,1.03
2019-03-04T10:52:45.460Z,1.10
2019-03-04T10:57:41.371Z,1.03
2019-03-04T11:02:37.297Z,1.60
2019-03-04T11:07:33.218Z,0.83
2019-03-04T11:12:29.125Z,1.10
2019-03-04T11:17:25.035Z,1.40
2019-03-04T11:22:20.945Z,1.70
2019-03-04T11:27:17.055Z,1.70
2019-03-04T11:32:12.960Z,2.00
2019-03-04T11:37:08.902Z,1.90
2019-03-04T11:42:04.810Z,1.77
2019-03-04T11:47:00.727Z,1.87
2019-03-04T11:51:56.658Z,1.50
2019-03-04T11:56:52.688Z,1.40
2019-03-04T12:01:49.219Z,1.83
2019-03-04T12:06:45.134Z,2.57
2019-03-04T12:11:41.142Z,1.63
2019-03-04T12:16:37.051Z,0.73
2019-03-04T12:21:33.277Z,0.80
2019-03-04T12:26:29.235Z,0.40
2019-03-04T12:31:28.430Z,0.53
2019-03-04T12:36:24.615Z,0.50
2019-03-04T12:41:20.617Z,0.43
2019-03-04T12:46:16.528Z,0.40
2019-03-04T12:51:12.438Z,0.70
2019-03-04T12:56:08.364Z,0.40
2019-03-04T13:01:04.366Z,0.60
2019-03-04T13:06:00.292Z,0.73
2019-03-04T13:10:56.208Z,0.80
2019-03-04T13:15:52.417Z,0.80
2019-03-04T13:20:48.320Z,0.87
2019-03-04T13:25:45.106Z,0.70
2019-03-04T13:30:45.602Z,1.50
2019-03-04T13:35:42.781Z,1.30
2019-03-04T13:40:38.797Z,1.00
2019-03-04T13:45:35.005Z,1.70
2019-03-04T13:50:35.557Z,1.80
2019-03-04T13:55:31.474Z,1.50
2019-03-04T14:00:41.977Z,2.10
2019-03-04T14:05:37.988Z,1.23
2019-03-04T14:11:03.521Z,1.57
2019-03-04T14:16:03.299Z,2.03
2019-03-04T14:21:01.860Z,1.70
2019-03-04T14:26:00.128Z,2.00
2019-03-04T14:30:56.334Z,1.53
2019-03-04T14:35:53.271Z,1.43
2019-03-04T14:40:51.536Z,2.20
2019-03-04T14:45:48.330Z,2.40
2019-03-04T14:50:45.035Z,1.37
2019-03-04T14:55:42.741Z,1.50
2019-03-04T15:00:42.134Z,1.70
2019-03-04T15:05:39.011Z,2.03
2019-03-04T15:10:35.906Z,1.70
2019-03-04T15:15:33.965Z,1.87
2019-03-04T15:20:33.477Z,1.43
2019-03-04T15:25:56.642Z,1.50
2019-03-04T15:31:00.313Z,1.90
2019-03-04T15:35:57.827Z,1.03
2019-03-04T15:40:54.684Z,1.30
2019-03-04T15:45:58.606Z,2.80
2019-03-04T15:50:55.861Z,2.03
2019-03-04T15:55:58.709Z,1.63
2019-03-04T16:00:56.397Z,2.60
2019-03-04T16:05:54.474Z,1.20
2019-03-04T16:10:51.397Z,3.20
2019-03-04T16:15:47.643Z,1.67
2019-03-04T16:20:44.112Z,2.33
2019-03-04T16:25:40.637Z,1.63
2019-03-04T16:30:36.791Z,2.40
2019-03-04T16:35:32.732Z,0.83
2019-03-04T16:40:29.665Z,2.83
2019-03-04T16:45:27.242Z,2.07
2019-03-04T16:50:26.471Z,1.70
2019-03-04T16:55:22.435Z,1.83
2019-03-04T17:00:19.755Z,2.20
2019-03-04T17:05:17.298Z,1.00
2019-03-04T17:10:23.855Z,1.30
2019-03-04T17:15:21.875Z,1.57
2019-03-04T17:20:19.106Z,2.93
2019-03-04T17:25:25.248Z,1.73
2019-03-04T17:30:23.527Z,1.73
2019-03-04T17:35:20.749Z,2.77
2019-03-04T17:40:18.453Z,1.57
2019-03-04T17:45:24.491Z,1.60
2019-03-04T17:50:31.149Z,1.70
2019-03-04T17:55:27.285Z,2.57
2019-03-04T18:00:23.232Z,1.63
2019-03-04T18:05:21.564Z,2.00
2019-03-04T18:10:18.754Z,0.93
2019-03-04T18:15:27.207Z,1.00
2019-03-04T18:20:33.606Z,2.23
2019-03-04T18:25:31.092Z,1.07
2019-03-04T18:30:39.832Z,1.10
2019-03-04T18:35:51.602Z,0.90
2019-03-04T18:41:09.609Z,1.20
2019-03-04T18:46:36.122Z,1.40
2019-03-04T18:51:32.902Z,1.80
2019-03-04T18:56:28.806Z,1.40
2019-03-04T19:01:24.940Z,1.63
2019-03-04T19:06:20.845Z,1.27
2019-03-04T19:11:16.798Z,1.20
2019-03-04T19:16:12.735Z,1.23
2019-03-04T19:21:08.857Z,1.80
2019-03-04T19:26:04.766Z,1.63
2019-03-04T19:31:00.743Z,1.53
2019-03-04T19:35:56.682Z,2.53
2019-03-04T19:40:53.752Z,1.93
2019-03-04T19:45:50.188Z,1.80
2019-03-04T19:50:47.486Z,2.27
2019-03-04T19:55:43.859Z,1.57
2019-03-04T20:00:40.139Z,0.97
2019-03-04T20:05:36.099Z,1.93
2019-03-04T20:10:32.019Z,1.80
2019-03-04T20:15:29.951Z,2.07
2019-03-04T20:20:29.083Z,1.83
2019-03-04T20:25:25.445Z,2.23
2019-03-04T20:30:23.075Z,2.33
2019-03-04T20:35:20.539Z,1.93
2019-03-04T20:40:16.681Z,1.63
2019-03-04T20:45:14.219Z,1.10
2019-03-04T20:50:19.235Z,1.70
2019-03-04T20:55:15.401Z,2.37
2019-03-04T21:00:36.178Z,1.77
2019-03-04T21:05:32.944Z,2.27
2019-03-04T21:10:29.008Z,1.70
2019-03-04T21:15:25.549Z,1.97
2019-03-04T21:20:22.611Z,1.57
2019-03-04T21:25:42.346Z,1.57
2019-03-04T21:30:44.977Z,1.80
2019-03-04T21:35:53.821Z,1.33
2019-03-04T21:40:55.344Z,1.80
2019-03-04T21:46:16.463Z,1.60
2019-03-04T21:51:37.853Z,1.67
2019-03-04T21:56:44.999Z,0.87
2019-03-04T22:01:47.994Z,1.67
2019-03-04T22:06:43.904Z,1.13
2019-03-04T22:11:39.847Z,1.67
2019-03-04T22:16:35.838Z,2.47
2019-03-04T22:21:31.768Z,1.80
2019-03-04T22:26:27.732Z,2.23
2019-03-04T22:31:24.394Z,2.00
2019-03-04T22:36:20.329Z,1.60
2019-03-04T22:41:16.237Z,2.67
2019-03-04T22:46:12.195Z,1.70
2019-03-04T22:51:08.278Z,1.60
2019-03-04T22:56:04.288Z,2.50
2019-03-04T23:01:05.920Z,2.70
2019-03-04T23:06:27.074Z,3.37
2019-03-04T23:11:26.816Z,4.00
2019-03-04T23:16:28.542Z,5.13
2019-03-04T23:21:24.449Z,4.70
2019-03-04T23:26:20.432Z,3.60
2019-03-04T23:31:16.363Z,6.07
2019-03-04T23:36:12.355Z,6.37
2019-03-04T23:41:08.257Z,4.60
2019-03-04T23:46:04.260Z,5.50
2019-03-04T23:51:00.764Z,5.83
2019-03-04T23:55:56.656Z,7.20
